createdAt,value
2019-02-05T00:00:36.759Z,18.50
2019-02-05T00:03:10.031Z,14.80
2019-02-05T00:05:54.963Z,15.20
2019-02-05T00:08:21.360Z,15.67
2019-02-05T00:10:47.927Z,18.20
2019-02-05T00:13:14.667Z,13.07
2019-02-05T00:15:41.291Z,19.50
2019-02-05T00:18:10.614Z,16.73
2019-02-05T00:20:39.846Z,13.77
2019-02-05T00:23:08.884Z,13.63
2019-02-05T00:25:35.150Z,15.50
2019-02-05T00:28:01.426Z,14.07
2019-02-05T00:30:27.922Z,14.37
2019-02-05T00:32:54.289Z,17.00
2019-02-05T00:35:21.052Z,13.07
2019-02-05T00:37:49.973Z,12.93
2019-02-05T00:40:16.560Z,16.73
2019-02-05T00:42:42.838Z,16.50
2019-02-05T00:45:12.248Z,16.40
2019-02-05T00:47:38.965Z,17.03
2019-02-05T00:50:10.230Z,15.73
2019-02-05T00:52:39.133Z,19.80
2019-02-05T00:55:11.544Z,14.90
2019-02-05T00:57:40.549Z,18.83
2019-02-05T01:00:30.930Z,20.90
2019-02-05T01:03:15.994Z,18.67
2019-02-05T01:05:42.460Z,19.43
2019-02-05T01:08:11.305Z,23.93
2019-02-05T01:10:37.915Z,21.30
2019-02-05T01:13:07.144Z,22.57
2019-02-05T01:15:33.452Z,24.73
2019-02-05T01:17:59.938Z,17.97
2019-02-05T01:20:28.838Z,21.37
2019-02-05T01:22:55.098Z,24.87
2019-02-05T01:25:21.586Z,28.80
2019-02-05T01:27:48.378Z,25.67
2019-02-05T01:30:20.412Z,26.37
2019-02-05T01:32:46.798Z,29.50
2019-02-05T01:35:13.123Z,28.80
2019-02-05T01:37:39.429Z,36.37
2019-02-05T01:40:09.481Z,31.00
2019-02-05T01:42:35.798Z,26.63
2019-02-05T01:45:04.491Z,33.93
2019-02-05T01:47:30.961Z,30.03
2019-02-05T01:50:00.194Z,33.57
2019-02-05T01:52:29.410Z,34.20
2019-02-05T01:54:55.792Z,36.77
2019-02-05T01:57:24.974Z,29.30
2019-02-05T01:59:51.679Z,28.57
2019-02-05T02:02:17.976Z,45.43
2019-02-05T02:04:44.272Z,41.10
2019-02-05T02:07:11.088Z,39.73
2019-02-05T02:09:56.120Z,36.47
2019-02-05T02:12:22.423Z,47.97
2019-02-05T02:14:49.219Z,36.70
2019-02-05T02:17:15.642Z,47.73
2019-02-05T02:19:41.950Z,47.73
2019-02-05T02:22:08.405Z,46.93
2019-02-05T02:24:34.669Z,48.67
2019-02-05T02:27:00.991Z,47.93
2019-02-05T02:29:29.942Z,47.87
2019-02-05T02:31:56.220Z,53.90
2019-02-05T02:34:25.826Z,50.13
2019-02-05T02:36:52.213Z,50.40
2019-02-05T02:39:21.196Z,50.00
2019-02-05T02:41:47.826Z,51.97
2019-02-05T02:44:14.196Z,52.43
2019-02-05T02:46:40.466Z,57.37
2019-02-05T02:49:06.877Z,53.90
2019-02-05T02:51:33.237Z,68.77
2019-02-05T02:53:59.648Z,45.77
2019-02-05T02:56:28.823Z,72.87
2019-02-05T02:58:55.416Z,75.67
2019-02-05T03:01:21.815Z,75.73
2019-02-05T03:03:48.084Z,80.77
2019-02-05T03:06:14.431Z,71.07
2019-02-05T03:08:40.798Z,60.67
2019-02-05T03:11:07.216Z,77.23
2019-02-05T03:13:33.882Z,79.83
2019-02-05T03:16:00.179Z,83.17
2019-02-05T03:18:26.558Z,81.90
2019-02-05T03:20:56.508Z,71.23
2019-02-05T03:23:22.901Z,78.77
2019-02-05T03:25:52.174Z,91.93
2019-02-05T03:28:21.288Z,86.73
2019-02-05T03:30:47.693Z,76.30
2019-02-05T03:33:26.347Z,86.00
2019-02-05T03:35:52.690Z,74.40
2019-02-05T03:38:19.133Z,84.63
2019-02-05T03:40:58.315Z,90.67
2019-02-05T03:43:27.751Z,91.13
2019-02-05T03:45:55.863Z,103.00
2019-02-05T03:48:25.764Z,93.97
2019-02-05T03:50:55.954Z,106.43
2019-02-05T03:53:37.855Z,99.93
2019-02-05T03:56:13.544Z,108.03
2019-02-05T03:58:46.505Z,113.80
2019-02-05T04:01:22.370Z,107.83
2019-02-05T04:04:10.905Z,115.83
2019-02-05T04:07:02.728Z,97.83
2019-02-05T04:09:57.706Z,98.73
2019-02-05T04:12:47.813Z,108.60
2019-02-05T04:15:21.101Z,94.50
2019-02-05T04:18:06.266Z,109.57
2019-02-05T04:21:11.853Z,117.80
2019-02-05T04:24:14.054Z,135.33
2019-02-05T04:26:50.003Z,107.90
2019-02-05T04:29:40.836Z,115.73
2019-02-05T04:32:17.254Z,129.50
2019-02-05T04:34:59.255Z,96.60
2019-02-05T04:38:07.481Z,109.33
2019-02-05T04:40:43.555Z,113.67
2019-02-05T04:43:25.744Z,136.27
2019-02-05T04:46:20.810Z,124.07
2019-02-05T04:49:11.859Z,136.03
2019-02-05T04:51:45.122Z,140.57
2019-02-05T04:54:24.171Z,115.40
2019-02-05T04:57:19.708Z,135.73
2019-02-05T04:59:55.715Z,121.20
2019-02-05T05:02:57.010Z,125.77
2019-02-05T05:05:50.937Z,121.47
2019-02-05T05:08:26.475Z,136.80
2019-02-05T05:11:11.526Z,92.80
2019-02-05T05:13:37.812Z,112.90
2019-02-05T05:16:04.398Z,139.83
2019-02-05T05:18:33.507Z,155.17
2019-02-05T05:21:03.042Z,134.67
2019-02-05T05:23:29.563Z,137.27
2019-02-05T05:25:55.970Z,146.50
2019-02-05T05:28:22.446Z,140.40
2019-02-05T05:31:07.435Z,42.67
2019-02-05T05:33:33.897Z,115.63
2019-02-05T05:36:00.305Z,142.90
2019-02-05T05:38:26.723Z,153.30
2019-02-05T05:40:53.144Z,168.60
2019-02-05T05:43:19.482Z,161.10
2019-02-05T05:45:45.759Z,184.57
2019-02-05T05:48:12.377Z,162.00
2019-02-05T05:50:38.706Z,168.60
2019-02-05T05:53:05.147Z,144.77
2019-02-05T05:55:34.101Z,157.33
2019-02-05T05:58:00.391Z,181.83
2019-02-05T06:00:26.683Z,172.50
2019-02-05T06:02:52.991Z,156.53
2019-02-05T06:05:38.024Z,182.07
2019-02-05T06:08:07.284Z,190.47
2019-02-05T06:10:52.349Z,156.10
2019-02-05T06:13:18.698Z,173.70
2019-02-05T06:15:47.939Z,171.37
2019-02-05T06:18:14.654Z,141.23
2019-02-05T06:20:41.022Z,178.07
2019-02-05T06:23:07.416Z,169.83
2019-02-05T06:25:33.963Z,162.30
2019-02-05T06:28:03.325Z,187.90
2019-02-05T06:30:32.191Z,184.50
2019-02-05T06:32:58.481Z,174.87
2019-02-05T06:35:43.566Z,187.63
2019-02-05T06:38:09.879Z,185.23
2019-02-05T06:40:38.983Z,181.40
2019-02-05T06:43:05.373Z,176.20
2019-02-05T06:45:34.630Z,191.40
2019-02-05T06:48:00.966Z,191.07
2019-02-05T06:50:27.283Z,214.37
2019-02-05T06:52:56.637Z,183.17
2019-02-05T06:55:41.543Z,177.63
2019-02-05T06:58:07.955Z,169.60
2019-02-05T07:00:34.227Z,166.00
2019-02-05T07:03:19.526Z,148.40
2019-02-05T07:05:48.620Z,206.93
2019-02-05T07:08:17.658Z,200.20
2019-02-05T07:10:44.959Z,157.17
2019-02-05T07:13:11.365Z,164.57
2019-02-05T07:15:37.675Z,212.40
2019-02-05T07:18:22.545Z,188.47
2019-02-05T07:20:48.918Z,187.40
2019-02-05T07:23:15.438Z,215.90
2019-02-05T07:26:00.378Z,199.17
2019-02-05T07:28:26.661Z,219.50
2019-02-05T07:30:53.290Z,218.40
2019-02-05T07:33:35.135Z,199.03
2019-02-05T07:36:01.546Z,233.67
2019-02-05T07:38:27.975Z,209.10
2019-02-05T07:40:54.460Z,194.30
2019-02-05T07:43:21.106Z,181.17
2019-02-05T07:45:50.107Z,209.23
2019-02-05T07:48:19.278Z,220.53
2019-02-05T07:50:48.429Z,220.07
2019-02-05T07:53:14.965Z,204.63
2019-02-05T07:55:43.909Z,205.53
2019-02-05T07:58:12.976Z,209.67
2019-02-05T08:00:42.147Z,218.23
2019-02-05T08:03:11.497Z,230.50
2019-02-05T08:05:56.441Z,203.60
2019-02-05T08:08:25.497Z,200.37
2019-02-05T08:11:11.342Z,194.10
2019-02-05T08:13:37.801Z,204.70
2019-02-05T08:16:07.000Z,209.53
2019-02-05T08:18:35.938Z,196.17
2019-02-05T08:21:03.145Z,188.23
2019-02-05T08:23:29.473Z,192.27
2019-02-05T08:25:55.767Z,236.63
2019-02-05T08:28:22.156Z,213.50
2019-02-05T08:30:48.542Z,188.10
2019-02-05T08:33:15.201Z,177.30
2019-02-05T08:35:50.933Z,190.10
2019-02-05T08:38:17.441Z,205.67
2019-02-05T08:41:03.075Z,185.23
2019-02-05T08:43:47.702Z,189.43
2019-02-05T08:46:13.993Z,184.97
2019-02-05T08:48:43.529Z,195.67
2019-02-05T08:51:10.105Z,211.03
2019-02-05T08:53:55.084Z,212.37
2019-02-05T08:56:21.613Z,174.63
2019-02-05T08:58:50.616Z,177.93
2019-02-05T09:01:17.261Z,206.40
2019-02-05T09:03:46.535Z,207.57
2019-02-05T09:06:31.753Z,197.13
2019-02-05T09:09:00.911Z,177.30
2019-02-05T09:11:27.317Z,216.17
2019-02-05T09:13:53.767Z,190.17
2019-02-05T09:16:38.785Z,202.27
2019-02-05T09:19:05.286Z,173.03
2019-02-05T09:21:34.448Z,203.03
2019-02-05T09:24:03.928Z,200.60
2019-02-05T09:26:31.316Z,206.57
2019-02-05T09:28:57.599Z,214.57
2019-02-05T09:31:23.853Z,186.30
2019-02-05T09:33:50.183Z,211.80
2019-02-05T09:36:16.996Z,201.43
2019-02-05T09:38:43.438Z,218.97
2019-02-05T09:41:09.713Z,231.90
2019-02-05T09:43:38.783Z,220.47
2019-02-05T09:46:05.153Z,186.90
2019-02-05T09:48:34.347Z,181.90
2019-02-05T09:51:03.606Z,156.23
2019-02-05T09:53:30.045Z,192.20
2019-02-05T09:56:12.920Z,184.93
2019-02-05T09:58:39.232Z,189.97
2019-02-05T10:01:06.100Z,242.97
2019-02-05T10:03:44.501Z,177.67
2019-02-05T10:06:11.032Z,205.47
2019-02-05T10:08:37.429Z,211.67
2019-02-05T10:11:22.638Z,232.43
2019-02-05T10:13:51.690Z,190.90
2019-02-05T10:16:18.168Z,183.83
2019-02-05T10:18:47.308Z,206.13
2019-02-05T10:21:32.346Z,166.73
2019-02-05T10:23:58.934Z,162.90
2019-02-05T10:26:27.921Z,193.83
2019-02-05T10:28:57.004Z,207.37
2019-02-05T10:31:26.393Z,194.90
2019-02-05T10:33:55.945Z,182.83
2019-02-05T10:36:22.410Z,179.17
2019-02-05T10:38:52.221Z,186.43
2019-02-05T10:41:18.734Z,174.73
2019-02-05T10:43:45.060Z,195.40
2019-02-05T10:46:11.475Z,207.67
2019-02-05T10:48:37.859Z,196.93
2019-02-05T10:51:04.281Z,187.50
2019-02-05T10:53:33.375Z,198.70
2019-02-05T10:55:59.726Z,196.97
2019-02-05T10:58:26.468Z,206.70
2019-02-05T11:00:52.997Z,178.87
2019-02-05T11:03:19.398Z,178.83
2019-02-05T11:06:01.231Z,118.60
2019-02-05T11:08:27.616Z,166.43
2019-02-05T11:10:54.132Z,166.30
2019-02-05T11:13:20.906Z,133.77
2019-02-05T11:15:47.521Z,155.23
2019-02-05T11:18:13.818Z,178.30
2019-02-05T11:20:42.875Z,153.47
2019-02-05T11:23:09.356Z,125.23
2019-02-05T11:25:48.028Z,128.07
2019-02-05T11:28:14.483Z,125.70
2019-02-05T11:30:43.698Z,143.80
2019-02-05T11:33:10.604Z,128.17
2019-02-05T11:35:36.887Z,124.87
2019-02-05T11:38:06.889Z,126.87
2019-02-05T11:40:35.169Z,118.57
2019-02-05T11:43:01.681Z,122.77
2019-02-05T11:45:31.559Z,113.20
2019-02-05T11:48:00.016Z,110.27
2019-02-05T11:50:26.567Z,110.80
2019-02-05T11:52:53.494Z,105.90
2019-02-05T11:55:25.730Z,89.43
2019-02-05T11:57:54.821Z,106.03
2019-02-05T12:00:32.622Z,100.80
2019-02-05T12:02:57.514Z,98.37
2019-02-05T12:05:39.138Z,97.93
2019-02-05T12:08:24.149Z,92.60
2019-02-05T12:11:08.931Z,93.73
2019-02-05T12:13:35.414Z,83.57
2019-02-05T12:16:20.415Z,100.70
2019-02-05T12:18:46.784Z,84.60
2019-02-05T12:21:16.718Z,72.60
2019-02-05T12:23:43.023Z,79.63
2019-02-05T12:26:12.287Z,77.80
2019-02-05T12:28:41.339Z,82.63
2019-02-05T12:31:26.304Z,80.90
2019-02-05T12:33:52.703Z,77.13
2019-02-05T12:36:19.002Z,68.57
2019-02-05T12:38:45.282Z,70.97
2019-02-05T12:41:26.729Z,75.70
2019-02-05T12:43:53.037Z,74.20
2019-02-05T12:46:19.385Z,65.10
2019-02-05T12:48:45.759Z,67.40
2019-02-05T12:51:12.637Z,72.43
2019-02-05T12:53:40.055Z,64.37
2019-02-05T12:56:06.533Z,68.10
2019-02-05T12:58:35.484Z,71.57
2019-02-05T13:01:01.869Z,76.43
2019-02-05T13:03:28.173Z,71.23
2019-02-05T13:05:57.377Z,77.50
2019-02-05T13:08:26.635Z,68.63
2019-02-05T13:10:55.841Z,61.40
2019-02-05T13:13:22.339Z,69.73
2019-02-05T13:15:48.733Z,73.50
2019-02-05T13:18:15.201Z,68.33
2019-02-05T13:20:44.712Z,63.03
2019-02-05T13:23:11.327Z,59.37
2019-02-05T13:25:40.367Z,72.03
2019-02-05T13:28:26.590Z,65.40
2019-02-05T13:30:53.345Z,73.40
2019-02-05T13:33:28.927Z,66.03
2019-02-05T13:35:55.631Z,69.40
2019-02-05T13:38:40.446Z,70.27
2019-02-05T13:41:06.891Z,67.83
